Adrian, OR (97901)

1:29 AM MDT on September 03, 2014 (GMT -0600)
KIDHOMED2 | Change Station
CLOSE
Current Station
Personal Weather Station
Location: Homedale, 3 SW, ID
Elevation: 2365 ft
Nearby Weather Stations

Elev 2365 ft 43.57 °N, 116.97 °W | Updated 53 seconds ago

Clear
Clear
68.3 °F
Feels Like 68.3 °F
N
13.0
Wind Variable Wind from WNW
Gusts 15.0 mph

Today
High -- | Low -- °F
--% Chance of Precip.
Yesterday
High -- | Low -- °F
Precip. -- in
7:14 AM 8:20 PM
First Quarter, 59% visible
Pressure 29.76 in
Visibility 10.0 miles
Clouds Clear
Dew Point 42 °F
Humidity 38%
Rainfall 0.00 in
Snow Depth Not available.
UV 0 out of 12
Pollen 7.60 out of 12
Air Quality Not available.
Flu Activity Not available.
METAR KEUL 030715Z AUTO 32012KT 10SM CLR 18/03 A2976 RMK AO1

More Conditions Fewer Conditions

Pressure 29.76 in
Visibility 10.0 miles
Clouds Clear
Dew Point 42 °F
Humidity 38%
Rainfall 0.00 in
Snow Depth Not available.
UV 0 out of 12
Pollen 7.60 out of 12
Air Quality Not available.
Flu Activity Not available.
METAR KEUL 030715Z AUTO 32012KT 10SM CLR 18/03 A2976 RMK AO1

More Conditions Fewer Conditions

10-Day Weather Forecast

Almanac

Astronomy

Sep. 03, 2014 Rise Set
Actual Time 7:14 AM MDT 8:20 PM MDT
Civil Twilight 6:44 AM MDT 8:49 PM MDT
Nautical Twilight 6:09 AM MDT 9:24 PM MDT
Astronomical Twilight 5:32 AM MDT 10:01 PM MDT
Moon 4:12 PM MDT 1:06 AM MDT
Length of Visible Light 14h 04m
Length of Day
13h 05m
Tomorrow will be 2m 54s shorter.
First Quarter, 59% of the Moon is Illuminated
Today
First Quarter
Sep 8
Full
Sep 15
Last Quarter
Sep 24
New
Oct 1
First Quarter

Today's Extremes

State Highs State Lows

Community

WunderPhotos

Upload Photos

1,749,891 photos uploaded!

Nearby

Snow Depth

Station Depth Elevation
Blue Mountain Spring 0 in 5900 ft
Lake Creek R.S. 0 in 5200 ft
Rock Springs 0 in 5550 ft
Schneider Meadows 0 in 5400 ft
Tipton 0 in 5150 ft

Earthquake Activity

City Distance Mag. Time & Date
No recent earthquake activity has been reported nearby.
Minimum magnitude displayed is 2.5.

Coastal Water Temperatures

Place Temperature
No Stations Reporting

Nearby Weather Stations